createdAt,value
2023-04-16T00:00:43.770Z,12.10
2023-04-16T00:03:46.983Z,13.13
2023-04-16T00:06:49.692Z,12.47
2023-04-16T00:09:52.238Z,13.17
2023-04-16T00:12:54.745Z,14.52
2023-04-16T00:15:57.277Z,13.15
2023-04-16T00:18:59.704Z,13.05
2023-04-16T00:22:02.257Z,11.73
2023-04-16T00:25:05.165Z,12.37
2023-04-16T00:28:09.025Z,12.13
2023-04-16T00:31:12.423Z,12.52
2023-04-16T00:34:15.322Z,11.57
2023-04-16T00:37:17.795Z,12.43
2023-04-16T00:40:20.357Z,11.17
2023-04-16T00:43:24.850Z,11.93
2023-04-16T00:46:27.760Z,13.63
2023-04-16T00:49:31.602Z,10.43
2023-04-16T00:52:35.746Z,11.00
2023-04-16T00:55:39.687Z,10.10
2023-04-16T00:58:42.279Z,10.75
2023-04-16T01:01:44.890Z,11.90
2023-04-16T01:04:47.594Z,11.77
2023-04-16T01:07:51.270Z,13.23
2023-04-16T01:10:53.681Z,12.70
2023-04-16T01:13:56.253Z,13.10
2023-04-16T01:16:58.662Z,13.20
2023-04-16T01:20:01.300Z,12.82
2023-04-16T01:23:04.010Z,12.03
2023-04-16T01:26:06.481Z,13.97
2023-04-16T01:29:09.179Z,13.75
2023-04-16T01:32:11.950Z,13.30
2023-04-16T01:35:18.368Z,12.98
2023-04-16T01:38:21.035Z,14.57
2023-04-16T01:41:23.487Z,12.83
2023-04-16T01:44:26.478Z,12.98
2023-04-16T01:47:29.326Z,13.30
2023-04-16T01:50:32.929Z,11.32
2023-04-16T01:53:37.113Z,12.33
2023-04-16T01:56:40.017Z,11.10
2023-04-16T01:59:42.467Z,11.70
2023-04-16T02:02:45.548Z,12.52
2023-04-16T02:05:52.352Z,11.95
2023-04-16T02:08:54.805Z,11.00
2023-04-16T02:11:57.490Z,11.37
2023-04-16T02:15:00.162Z,12.15
2023-04-16T02:18:04.811Z,10.75
2023-04-16T02:21:08.066Z,11.00
2023-04-16T02:24:10.659Z,12.00
2023-04-16T02:27:13.092Z,13.03
2023-04-16T02:30:16.616Z,11.43
2023-04-16T02:33:20.284Z,13.07
2023-04-16T02:36:32.238Z,11.13
2023-04-16T02:39:35.463Z,11.93
2023-04-16T02:42:37.883Z,11.80
2023-04-16T02:45:41.332Z,13.40
2023-04-16T02:48:43.998Z,11.05
2023-04-16T02:51:46.976Z,14.15
2023-04-16T02:54:49.537Z,10.80
2023-04-16T02:57:52.976Z,10.80
2023-04-16T03:00:55.796Z,11.15
2023-04-16T03:03:58.425Z,9.65
2023-04-16T03:07:01.033Z,12.25
2023-04-16T03:10:03.749Z,12.83
2023-04-16T03:13:06.515Z,11.10
2023-04-16T03:16:09.107Z,10.82
2023-04-16T03:19:12.138Z,14.15
2023-04-16T03:22:15.062Z,11.57
2023-04-16T03:25:18.057Z,10.10
2023-04-16T03:28:21.789Z,12.73
2023-04-16T03:31:26.068Z,10.98
2023-04-16T03:34:29.634Z,10.80
2023-04-16T03:37:32.302Z,10.43
2023-04-16T03:40:34.804Z,10.43
2023-04-16T03:43:37.538Z,10.70
2023-04-16T03:46:40.657Z,10.43
2023-04-16T03:49:43.162Z,13.43
2023-04-16T03:52:47.008Z,8.90
2023-04-16T03:55:51.589Z,9.23
2023-04-16T03:58:54.912Z,10.82
2023-04-16T04:01:58.288Z,8.98
2023-04-16T04:05:02.462Z,8.85
2023-04-16T04:08:05.575Z,9.47
2023-04-16T04:11:08.796Z,8.65
2023-04-16T04:14:11.960Z,10.85
2023-04-16T04:17:14.613Z,9.45
2023-04-16T04:20:17.330Z,8.27
2023-04-16T04:23:22.145Z,10.83
2023-04-16T04:26:25.746Z,7.68
2023-04-16T04:29:28.480Z,6.90
2023-04-16T04:32:31.402Z,8.35
2023-04-16T04:35:34.035Z,8.98
2023-04-16T04:38:37.057Z,9.10
2023-04-16T04:41:40.508Z,8.50
2023-04-16T04:44:43.092Z,9.63
2023-04-16T04:47:46.019Z,8.25
2023-04-16T04:50:48.467Z,9.33
2023-04-16T04:53:50.836Z,9.13
2023-04-16T04:56:53.491Z,8.50
2023-04-16T04:59:56.440Z,8.82
2023-04-16T05:03:03.029Z,7.47
2023-04-16T05:06:05.647Z,8.40
2023-04-16T05:09:11.889Z,7.63
2023-04-16T05:12:14.440Z,8.55
2023-04-16T05:15:17.240Z,8.05
2023-04-16T05:18:20.506Z,9.00
2023-04-16T05:21:23.003Z,7.27
2023-04-16T05:24:25.753Z,8.70
2023-04-16T05:27:28.218Z,8.95
2023-04-16T05:30:30.838Z,9.02
2023-04-16T05:33:33.316Z,7.73
2023-04-16T05:36:35.782Z,7.73
2023-04-16T05:39:38.546Z,7.57
2023-04-16T05:42:41.373Z,6.97
2023-04-16T05:45:43.914Z,7.18
2023-04-16T05:48:47.328Z,8.77
2023-04-16T05:51:50.860Z,7.93
2023-04-16T05:54:53.516Z,9.13
2023-04-16T05:57:56.063Z,7.43
2023-04-16T06:00:58.717Z,8.38
2023-04-16T06:04:01.847Z,8.43
2023-04-16T06:07:04.587Z,6.37
2023-04-16T06:10:07.569Z,9.48
2023-04-16T06:13:10.057Z,6.75
2023-04-16T06:16:12.596Z,7.28
2023-04-16T06:19:15.296Z,7.13
2023-04-16T06:22:17.923Z,6.90
2023-04-16T06:25:20.433Z,6.75
2023-04-16T06:28:23.005Z,6.57
2023-04-16T06:31:25.644Z,9.13
2023-04-16T06:34:28.491Z,5.90
2023-04-16T06:37:31.249Z,5.07
2023-04-16T06:40:33.764Z,6.70
2023-04-16T06:43:36.570Z,8.35
2023-04-16T06:46:39.530Z,6.38
2023-04-16T06:49:42.405Z,5.90
2023-04-16T06:52:45.119Z,6.87
2023-04-16T06:55:47.683Z,7.00
2023-04-16T06:58:50.558Z,7.25
2023-04-16T07:01:53.128Z,9.00
2023-04-16T07:04:55.952Z,6.57
2023-04-16T07:07:59.279Z,8.03
2023-04-16T07:11:01.883Z,5.53
2023-04-16T07:14:04.300Z,5.85
2023-04-16T07:17:06.777Z,6.75
2023-04-16T07:20:09.589Z,6.47
2023-04-16T07:23:12.099Z,5.30
2023-04-16T07:26:14.581Z,5.57
2023-04-16T07:29:17.396Z,5.75
2023-04-16T07:32:22.523Z,4.88
2023-04-16T07:35:25.476Z,5.67
2023-04-16T07:38:28.122Z,7.73
2023-04-16T07:41:31.052Z,5.72
2023-04-16T07:44:33.701Z,5.15
2023-04-16T07:47:36.655Z,4.50
2023-04-16T07:50:39.280Z,4.53
2023-04-16T07:53:43.432Z,4.67
2023-04-16T07:56:46.140Z,3.97
2023-04-16T07:59:49.122Z,4.35
2023-04-16T08:02:51.615Z,3.85
2023-04-16T08:05:54.271Z,3.50
2023-04-16T08:08:57.009Z,3.57
2023-04-16T08:12:00.937Z,3.22
2023-04-16T08:15:03.751Z,3.17
2023-04-16T08:18:07.464Z,4.28
2023-04-16T08:21:10.002Z,4.23
2023-04-16T08:24:12.741Z,4.23
2023-04-16T08:27:19.964Z,3.78
2023-04-16T08:30:23.049Z,4.13
2023-04-16T08:33:25.525Z,3.20
2023-04-16T08:36:27.991Z,2.90
2023-04-16T08:39:30.555Z,3.63
2023-04-16T08:42:45.005Z,2.83
2023-04-16T08:45:47.695Z,3.50
2023-04-16T08:48:54.404Z,4.95
2023-04-16T08:51:57.525Z,3.20
2023-04-16T08:55:16.925Z,3.73
2023-04-16T08:58:22.208Z,3.42
2023-04-16T09:01:26.879Z,4.13
2023-04-16T09:04:30.002Z,3.72
2023-04-16T09:07:34.227Z,4.53
2023-04-16T09:10:36.781Z,4.50
2023-04-16T09:13:39.600Z,3.20
2023-04-16T09:16:42.417Z,2.90
2023-04-16T09:19:47.189Z,2.83
2023-04-16T09:22:49.815Z,3.60
2023-04-16T09:25:52.221Z,2.90
2023-04-16T09:28:55.540Z,2.63
2023-04-16T09:32:09.084Z,2.67
2023-04-16T09:35:11.665Z,5.80
2023-04-16T09:38:14.236Z,5.40
2023-04-16T09:41:16.888Z,2.83
2023-04-16T09:44:19.345Z,3.88
2023-04-16T09:47:22.916Z,3.53
2023-04-16T09:50:26.495Z,4.85
2023-04-16T09:53:31.054Z,3.03
2023-04-16T09:56:34.114Z,3.80
2023-04-16T09:59:37.141Z,2.30
2023-04-16T10:02:42.213Z,3.17
2023-04-16T10:05:45.403Z,3.20
2023-04-16T10:08:53.356Z,2.23
2023-04-16T10:11:55.967Z,2.73
2023-04-16T10:14:58.479Z,3.55
2023-04-16T10:18:01.388Z,2.92
2023-04-16T10:21:05.662Z,3.15
2023-04-16T10:24:08.904Z,2.03
2023-04-16T10:27:11.548Z,2.40
2023-04-16T10:30:15.633Z,2.70
2023-04-16T10:33:30.285Z,2.30
2023-04-16T10:36:36.727Z,2.28
2023-04-16T10:39:39.649Z,2.17
2023-04-16T10:42:42.182Z,1.87
2023-04-16T10:45:44.675Z,2.60
2023-04-16T10:48:50.214Z,2.78
2023-04-16T10:52:12.285Z,3.35
2023-04-16T10:55:17.752Z,2.63
2023-04-16T10:58:35.876Z,2.23
2023-04-16T11:01:44.417Z,3.03
2023-04-16T11:04:48.587Z,2.72
2023-04-16T11:07:51.170Z,2.72
2023-04-16T11:10:54.330Z,1.73
2023-04-16T11:13:57.147Z,2.40
2023-04-16T11:17:03.764Z,1.83
2023-04-16T11:20:20.144Z,1.60
2023-04-16T11:23:23.775Z,2.42
2023-04-16T11:26:28.857Z,1.83
2023-04-16T11:29:31.393Z,1.97
2023-04-16T11:32:35.627Z,1.85
2023-04-16T11:35:39.653Z,2.58
2023-04-16T11:38:43.070Z,2.95
2023-04-16T11:41:52.342Z,2.13
2023-04-16T11:44:56.216Z,3.03
2023-04-16T11:47:58.901Z,3.25
2023-04-16T11:51:01.791Z,2.55
2023-04-16T11:54:04.634Z,3.25
2023-04-16T11:57:07.260Z,2.30
2023-04-16T12:00:15.970Z,1.57
2023-04-16T12:03:18.651Z,1.92
2023-04-16T12:06:22.722Z,2.88
2023-04-16T12:09:30.152Z,2.65
2023-04-16T12:12:32.914Z,1.70
2023-04-16T12:15:55.355Z,2.23
2023-04-16T12:19:03.885Z,1.70
2023-04-16T12:22:06.659Z,1.58
2023-04-16T12:25:13.139Z,1.92
2023-04-16T12:28:16.551Z,3.50
2023-04-16T12:31:37.464Z,1.40
2023-04-16T12:34:51.431Z,1.20
2023-04-16T12:37:53.843Z,3.65
2023-04-16T12:40:57.648Z,1.48
2023-04-16T12:44:11.984Z,2.27
2023-04-16T12:47:14.992Z,2.57
2023-04-16T12:50:17.874Z,1.15
2023-04-16T12:53:20.523Z,1.55
2023-04-16T12:56:23.220Z,1.13
2023-04-16T12:59:26.850Z,1.33
2023-04-16T13:02:29.597Z,2.37
2023-04-16T13:05:32.417Z,3.22
2023-04-16T13:08:35.031Z,2.70
2023-04-16T13:11:37.773Z,1.52
2023-04-16T13:14:40.296Z,1.87
2023-04-16T13:17:42.823Z,1.00
2023-04-16T13:20:45.553Z,1.63
2023-04-16T13:23:48.000Z,1.70
2023-04-16T13:26:52.060Z,1.90
2023-04-16T13:29:54.613Z,2.27
2023-04-16T13:32:57.253Z,2.43
2023-04-16T13:36:00.171Z,1.48
2023-04-16T13:39:05.267Z,1.38
2023-04-16T13:42:08.124Z,1.55
2023-04-16T13:45:11.374Z,1.40
2023-04-16T13:48:14.234Z,2.37
2023-04-16T13:51:17.029Z,1.33
2023-04-16T13:54:20.058Z,0.98
2023-04-16T13:57:22.768Z,0.93
2023-04-16T14:00:27.690Z,1.40
2023-04-16T14:03:30.543Z,0.83
2023-04-16T14:06:34.620Z,0.90
2023-04-16T14:09:37.392Z,1.25
2023-04-16T14:12:40.681Z,1.58
2023-04-16T14:15:43.498Z,0.97
2023-04-16T14:18:46.404Z,1.83
2023-04-16T14:21:49.310Z,0.70
2023-04-16T14:24:52.010Z,1.23
2023-04-16T14:27:54.526Z,0.68
2023-04-16T14:30:57.333Z,1.07
2023-04-16T14:33:59.950Z,2.20
2023-04-16T14:37:02.478Z,1.15
2023-04-16T14:40:08.999Z,0.70
2023-04-16T14:43:11.959Z,1.35
2023-04-16T14:46:17.660Z,1.30
2023-04-16T14:49:20.798Z,1.10
2023-04-16T14:52:24.209Z,0.95
2023-04-16T14:55:27.216Z,2.85
2023-04-16T14:58:29.720Z,1.50
2023-04-16T15:01:33.712Z,5.17
2023-04-16T15:04:36.645Z,1.13
2023-04-16T15:07:39.419Z,1.95
2023-04-16T15:10:43.383Z,1.10
2023-04-16T15:13:48.930Z,1.13
2023-04-16T15:16:51.701Z,1.30
2023-04-16T15:19:54.371Z,1.40
2023-04-16T15:22:56.985Z,1.08
2023-04-16T15:25:59.492Z,2.33
2023-04-16T15:29:02.139Z,1.58
2023-04-16T15:32:04.808Z,1.70
2023-04-16T15:35:09.181Z,2.30
2023-04-16T15:38:13.062Z,2.35
2023-04-16T15:41:15.921Z,3.25
2023-04-16T15:44:18.691Z,2.65
2023-04-16T15:47:21.522Z,2.47
2023-04-16T15:50:25.527Z,1.40
2023-04-16T15:53:28.265Z,1.75
2023-04-16T15:56:31.596Z,1.05
2023-04-16T15:59:34.291Z,1.88
2023-04-16T16:02:38.196Z,1.50
2023-04-16T16:05:41.082Z,3.23
2023-04-16T16:08:44.187Z,2.65
2023-04-16T16:11:47.322Z,2.67
2023-04-16T16:14:50.017Z,5.07
2023-04-16T16:17:53.539Z,2.60
2023-04-16T16:20:57.751Z,1.97
2023-04-16T16:24:00.344Z,1.70
2023-04-16T16:27:03.089Z,2.70
2023-04-16T16:30:07.385Z,1.85
2023-04-16T16:33:10.507Z,1.40
2023-04-16T16:36:13.170Z,1.60
2023-04-16T16:39:16.053Z,1.42
2023-04-16T16:42:18.969Z,2.05
2023-04-16T16:45:21.807Z,2.47
2023-04-16T16:48:24.818Z,1.90
2023-04-16T16:51:27.770Z,3.37
2023-04-16T16:54:31.063Z,3.95
2023-04-16T16:57:34.953Z,5.20
2023-04-16T17:00:38.008Z,8.00
2023-04-16T17:03:41.247Z,20.83
2023-04-16T17:06:43.821Z,34.57
2023-04-16T17:09:46.762Z,36.05
2023-04-16T17:12:51.114Z,14.65
2023-04-16T17:15:53.848Z,5.70
2023-04-16T17:18:57.314Z,3.63
2023-04-16T17:22:00.353Z,3.77
2023-04-16T17:25:03.934Z,6.38
2023-04-16T17:28:06.676Z,4.07
2023-04-16T17:31:11.432Z,3.63
2023-04-16T17:34:14.522Z,7.50
2023-04-16T17:37:16.927Z,4.27
2023-04-16T17:40:19.944Z,1.83
2023-04-16T17:43:22.816Z,2.35
2023-04-16T17:46:25.949Z,0.98
2023-04-16T17:49:28.646Z,2.60
2023-04-16T17:52:31.413Z,3.77
2023-04-16T17:55:34.014Z,2.13
2023-04-16T17:58:37.622Z,3.08
2023-04-16T18:01:41.042Z,2.40
2023-04-16T18:04:43.654Z,9.23
2023-04-16T18:07:47.144Z,13.57
2023-04-16T18:10:50.487Z,10.73
2023-04-16T18:13:53.986Z,6.40
2023-04-16T18:16:58.350Z,4.65
2023-04-16T18:20:01.055Z,3.30
2023-04-16T18:23:04.106Z,3.53
2023-04-16T18:26:08.432Z,4.60
2023-04-16T18:29:13.224Z,5.35
2023-04-16T18:32:16.617Z,3.55
2023-04-16T18:35:19.589Z,2.83
2023-04-16T18:38:22.639Z,2.50
2023-04-16T18:41:25.643Z,2.60
2023-04-16T18:44:28.379Z,2.70
2023-04-16T18:47:31.500Z,1.95
2023-04-16T18:50:34.184Z,3.80
2023-04-16T18:53:38.045Z,4.87
2023-04-16T18:56:41.332Z,2.80
2023-04-16T18:59:44.216Z,2.80
2023-04-16T19:02:47.235Z,2.20
2023-04-16T19:05:52.076Z,3.23
2023-04-16T19:08:54.984Z,4.13
2023-04-16T19:11:58.464Z,3.55
2023-04-16T19:15:01.670Z,4.82
2023-04-16T19:18:04.751Z,6.63
2023-04-16T19:21:07.677Z,13.40
2023-04-16T19:24:11.209Z,15.63
2023-04-16T19:27:14.015Z,8.35
2023-04-16T19:30:17.004Z,3.25
2023-04-16T19:33:23.209Z,5.75
2023-04-16T19:36:26.536Z,1.63
2023-04-16T19:39:29.327Z,3.10
2023-04-16T19:42:32.674Z,2.47
2023-04-16T19:45:36.251Z,2.45
2023-04-16T19:48:38.851Z,2.08
2023-04-16T19:51:41.559Z,1.63
2023-04-16T19:54:44.702Z,2.20
2023-04-16T19:57:48.202Z,2.53
2023-04-16T20:00:51.008Z,2.22
2023-04-16T20:03:54.680Z,1.40
2023-04-16T20:06:57.385Z,1.83
2023-04-16T20:10:00.047Z,3.40
2023-04-16T20:13:02.923Z,1.60
2023-04-16T20:16:05.953Z,8.98
2023-04-16T20:19:09.062Z,1.58
2023-04-16T20:22:15.659Z,2.33
2023-04-16T20:25:21.776Z,2.30
2023-04-16T20:28:24.324Z,3.42
2023-04-16T20:31:27.388Z,1.90
2023-04-16T20:34:29.982Z,2.55
2023-04-16T20:37:32.547Z,1.67
2023-04-16T20:40:38.062Z,1.90
2023-04-16T20:43:42.066Z,1.88
2023-04-16T20:46:49.484Z,2.55
2023-04-16T20:49:52.970Z,2.60
2023-04-16T20:52:55.937Z,2.23
2023-04-16T20:56:00.516Z,3.77
2023-04-16T20:59:03.005Z,3.53
2023-04-16T21:02:05.867Z,3.70
2023-04-16T21:05:14.596Z,1.98
2023-04-16T21:08:21.462Z,3.20
2023-04-16T21:11:23.970Z,2.43
2023-04-16T21:14:26.559Z,2.35
2023-04-16T21:17:30.010Z,1.58
2023-04-16T21:20:33.257Z,1.50
2023-04-16T21:23:36.026Z,2.60
2023-04-16T21:26:38.449Z,1.60
2023-04-16T21:29:40.829Z,1.75
2023-04-16T21:32:43.627Z,1.58
2023-04-16T21:35:51.258Z,2.13
2023-04-16T21:38:53.701Z,1.60
2023-04-16T21:41:57.055Z,2.53
2023-04-16T21:44:59.661Z,3.42
2023-04-16T21:48:02.211Z,1.38
2023-04-16T21:51:08.231Z,2.47
2023-04-16T21:54:11.877Z,2.03
2023-04-16T21:57:14.841Z,1.90
2023-04-16T22:00:18.375Z,2.25
2023-04-16T22:03:26.665Z,2.03
2023-04-16T22:06:29.244Z,1.30
2023-04-16T22:09:32.623Z,2.37
2023-04-16T22:12:37.857Z,1.53
2023-04-16T22:15:40.607Z,1.30
2023-04-16T22:18:43.167Z,1.83
2023-04-16T22:21:47.575Z,2.45
2023-04-16T22:24:50.060Z,1.83
2023-04-16T22:27:52.627Z,2.33
2023-04-16T22:30:55.013Z,2.47
2023-04-16T22:33:57.525Z,2.03
2023-04-16T22:37:01.456Z,2.35
2023-04-16T22:40:08.230Z,1.53
2023-04-16T22:43:10.919Z,1.93
2023-04-16T22:46:13.493Z,2.40
2023-04-16T22:49:16.078Z,2.35
2023-04-16T22:52:18.625Z,2.55
2023-04-16T22:55:21.185Z,1.73
2023-04-16T22:58:23.581Z,2.43
2023-04-16T23:01:26.536Z,2.40
2023-04-16T23:04:29.221Z,1.48
2023-04-16T23:07:31.803Z,2.20
2023-04-16T23:10:34.272Z,1.60
2023-04-16T23:13:37.397Z,1.57
2023-04-16T23:16:40.097Z,1.77
2023-04-16T23:19:42.565Z,1.17
2023-04-16T23:22:47.203Z,1.33
2023-04-16T23:25:53.261Z,2.40
2023-04-16T23:28:57.093Z,2.57
2023-04-16T23:31:59.693Z,1.05
2023-04-16T23:35:02.281Z,1.50
2023-04-16T23:38:04.777Z,1.45
2023-04-16T23:41:07.445Z,1.57
2023-04-16T23:44:09.968Z,1.70
2023-04-16T23:47:12.351Z,1.55
2023-04-16T23:50:15.191Z,1.38
2023-04-16T23:53:17.870Z,1.20
2023-04-16T23:56:20.430Z,2.00
2023-04-16T23:59:24.184Z,2.17
